GFA501 OMDB-OBBI
Flight info
| Callsign | GFA501 |
|---|---|
| Flight time | 0h 50m |
| Altitude | 26000 |
| Route | NABIX3F NABIX P699 ORMID M556 ORDIG ORDIG1 |
| Aircraft | A320/M-VGDW/C |
Departure
| Time | 2026-04-22 23:21 |
|---|---|
| Airport | Dubai International Airport (OMDB) |
Arrival
| Time | 2026-04-23 00:11 |
|---|---|
| Airport | Bahrain International Airport (OBBI) |
| Time | Latitude | Longitude | Altitude | Speed | Heading |
|---|---|---|---|---|---|
| 2026-04-22 22:42 | 25.25729 | 55.34752 | 28 ft | 0 kts | 211° |
| 2026-04-22 23:07 | 25.25743 | 55.34762 | 14 ft | 4 kts | 210° |
| 2026-04-22 23:07 | 25.25767 | 55.34777 | 12 ft | 4 kts | 208° |
| 2026-04-22 23:07 | 25.25790 | 55.34789 | 13 ft | 3 kts | 199° |
| 2026-04-22 23:07 | 25.25806 | 55.34794 | 11 ft | 2 kts | 171° |
| 2026-04-22 23:08 | 25.25817 | 55.34791 | 11 ft | 2 kts | 139° |
| 2026-04-22 23:08 | 25.25831 | 55.34773 | 11 ft | 4 kts | 121° |
| 2026-04-22 23:08 | 25.25829 | 55.34775 | 11 ft | 2 kts | 122° |
| 2026-04-22 23:12 | 25.25821 | 55.34789 | 10 ft | 4 kts | 122° |
| 2026-04-22 23:12 | 25.25809 | 55.34812 | 11 ft | 4 kts | 120° |
| 2026-04-22 23:12 | 25.25779 | 55.34866 | 11 ft | 10 kts | 121° |
| 2026-04-22 23:12 | 25.25747 | 55.34926 | 10 ft | 9 kts | 121° |
| 2026-04-22 23:13 | 25.25762 | 55.35008 | 10 ft | 14 kts | 37° |
| 2026-04-22 23:13 | 25.25848 | 55.35067 | 10 ft | 16 kts | 31° |
| 2026-04-22 23:13 | 25.25948 | 55.35134 | 10 ft | 18 kts | 31° |
| 2026-04-22 23:13 | 25.26062 | 55.35209 | 10 ft | 20 kts | 31° |
| 2026-04-22 23:14 | 25.26095 | 55.35334 | 10 ft | 20 kts | 119° |
| 2026-04-22 23:14 | 25.26018 | 55.35475 | 10 ft | 22 kts | 121° |
| 2026-04-22 23:14 | 25.25934 | 55.35629 | 10 ft | 25 kts | 121° |
| 2026-04-22 23:14 | 25.25841 | 55.35797 | 11 ft | 26 kts | 121° |
| 2026-04-22 23:15 | 25.25741 | 55.35976 | 9 ft | 28 kts | 121° |
| 2026-04-22 23:15 | 25.25636 | 55.36166 | 9 ft | 30 kts | 121° |
| 2026-04-22 23:15 | 25.25565 | 55.36299 | 9 ft | 31 kts | 121° |
| 2026-04-22 23:15 | 25.25409 | 55.36573 | 9 ft | 32 kts | 121° |
| 2026-04-22 23:16 | 25.25333 | 55.36712 | 10 ft | 30 kts | 121° |
| 2026-04-22 23:16 | 25.25248 | 55.36867 | 9 ft | 20 kts | 120° |
| 2026-04-22 23:16 | 25.25175 | 55.36999 | 11 ft | 21 kts | 121° |
| 2026-04-22 23:16 | 25.25095 | 55.37141 | 10 ft | 23 kts | 122° |
| 2026-04-22 23:17 | 25.25009 | 55.37296 | 10 ft | 25 kts | 121° |
| 2026-04-22 23:17 | 25.24916 | 55.37464 | 11 ft | 26 kts | 121° |
| 2026-04-22 23:17 | 25.24818 | 55.37643 | 11 ft | 28 kts | 121° |
| 2026-04-22 23:17 | 25.24716 | 55.37831 | 13 ft | 26 kts | 121° |
| 2026-04-22 23:18 | 25.24691 | 55.37966 | 12 ft | 14 kts | 47° |
| 2026-04-22 23:18 | 25.24771 | 55.38017 | 12 ft | 13 kts | 17° |
| 2026-04-22 23:18 | 25.24836 | 55.37975 | 11 ft | 0 kts | 302° |
| 2026-04-22 23:20 | 25.24878 | 55.37901 | 11 ft | 41 kts | 302° |
| 2026-04-22 23:20 | 25.25168 | 55.37378 | 10 ft | 115 kts | 301° |
| 2026-04-22 23:20 | 25.25685 | 55.36449 | 13 ft | 169 kts | 302° |
| 2026-04-22 23:20 | 25.26324 | 55.35307 | 633 ft | 172 kts | 303° |
| 2026-04-22 23:21 | 25.26954 | 55.34177 | 1343 ft | 173 kts | 303° |
| 2026-04-22 23:21 | 25.27572 | 55.33017 | 1941 ft | 181 kts | 294° |
| 2026-04-22 23:21 | 25.27743 | 55.31577 | 2237 ft | 202 kts | 264° |
| 2026-04-22 23:21 | 25.27611 | 55.29933 | 2501 ft | 227 kts | 264° |
| 2026-04-22 23:22 | 25.27452 | 55.28103 | 2846 ft | 251 kts | 264° |
| 2026-04-22 23:22 | 25.27277 | 55.26094 | 3256 ft | 273 kts | 264° |
| 2026-04-22 23:22 | 25.27097 | 55.23974 | 4026 ft | 279 kts | 264° |
| 2026-04-22 23:22 | 25.26922 | 55.21869 | 4921 ft | 279 kts | 263° |
| 2026-04-22 23:23 | 25.26746 | 55.19731 | 5851 ft | 279 kts | 263° |
| 2026-04-22 23:23 | 25.26573 | 55.17602 | 6747 ft | 278 kts | 263° |
| 2026-04-22 23:23 | 25.26401 | 55.15467 | 7622 ft | 279 kts | 263° |
| 2026-04-22 23:23 | 25.26226 | 55.13327 | 8501 ft | 280 kts | 263° |
| 2026-04-22 23:24 | 25.26049 | 55.11177 | 9376 ft | 282 kts | 263° |
| 2026-04-22 23:24 | 25.25870 | 55.09013 | 10176 ft | 286 kts | 263° |
| 2026-04-22 23:24 | 25.25676 | 55.06705 | 10470 ft | 310 kts | 263° |
| 2026-04-22 23:24 | 25.25472 | 55.04293 | 10850 ft | 326 kts | 263° |
| 2026-04-22 23:25 | 25.25261 | 55.01779 | 11528 ft | 331 kts | 263° |
| 2026-04-22 23:25 | 25.25049 | 54.99228 | 12293 ft | 335 kts | 263° |
| 2026-04-22 23:25 | 25.24836 | 54.96658 | 13067 ft | 338 kts | 263° |
| 2026-04-22 23:25 | 25.24620 | 54.94068 | 13804 ft | 340 kts | 263° |
| 2026-04-22 23:26 | 25.24405 | 54.91449 | 14435 ft | 344 kts | 264° |
| 2026-04-22 23:26 | 25.24188 | 54.88811 | 14898 ft | 346 kts | 264° |
| 2026-04-22 23:26 | 25.23969 | 54.86151 | 15585 ft | 349 kts | 264° |
| 2026-04-22 23:26 | 25.23746 | 54.83471 | 16265 ft | 352 kts | 264° |
| 2026-04-22 23:27 | 25.23518 | 54.80765 | 16939 ft | 355 kts | 264° |
| 2026-04-22 23:27 | 25.23286 | 54.78036 | 17609 ft | 359 kts | 265° |
| 2026-04-22 23:27 | 25.23053 | 54.75281 | 18248 ft | 362 kts | 265° |
| 2026-04-22 23:27 | 25.22819 | 54.72505 | 18822 ft | 365 kts | 265° |
| 2026-04-22 23:28 | 25.22578 | 54.69704 | 19401 ft | 368 kts | 265° |
| 2026-04-22 23:28 | 25.22335 | 54.66877 | 19977 ft | 371 kts | 264° |
| 2026-04-22 23:28 | 25.22090 | 54.64028 | 20553 ft | 374 kts | 264° |
| 2026-04-22 23:28 | 25.21844 | 54.61149 | 21132 ft | 377 kts | 264° |
| 2026-04-22 23:29 | 25.21597 | 54.58247 | 21709 ft | 380 kts | 264° |
| 2026-04-22 23:29 | 25.21352 | 54.55327 | 22271 ft | 384 kts | 266° |
| 2026-04-22 23:29 | 25.21429 | 54.52373 | 22808 ft | 388 kts | 277° |
| 2026-04-22 23:29 | 25.22020 | 54.49445 | 23341 ft | 392 kts | 284° |
| 2026-04-22 23:30 | 25.22766 | 54.46540 | 23782 ft | 395 kts | 284° |
| 2026-04-22 23:30 | 25.23511 | 54.43616 | 24234 ft | 397 kts | 284° |
| 2026-04-22 23:30 | 25.24254 | 54.40669 | 24686 ft | 399 kts | 284° |
| 2026-04-22 23:30 | 25.24997 | 54.37713 | 25136 ft | 401 kts | 284° |
| 2026-04-22 23:31 | 25.25741 | 54.34743 | 25564 ft | 402 kts | 284° |
| 2026-04-22 23:31 | 25.26487 | 54.31761 | 25735 ft | 403 kts | 284° |
| 2026-04-22 23:31 | 25.27224 | 54.28815 | 25771 ft | 393 kts | 284° |
| 2026-04-22 23:31 | 25.27946 | 54.25917 | 25778 ft | 389 kts | 284° |
| 2026-04-22 23:32 | 25.28659 | 54.23042 | 25773 ft | 387 kts | 284° |
| 2026-04-22 23:32 | 25.29369 | 54.20172 | 25771 ft | 387 kts | 284° |
| 2026-04-22 23:32 | 25.30077 | 54.17309 | 25780 ft | 387 kts | 284° |
| 2026-04-22 23:32 | 25.30787 | 54.14440 | 25777 ft | 386 kts | 284° |
| 2026-04-22 23:33 | 25.31480 | 54.11571 | 25769 ft | 386 kts | 283° |
| 2026-04-22 23:33 | 25.32118 | 54.08683 | 25770 ft | 386 kts | 282° |
| 2026-04-22 23:33 | 25.32716 | 54.05793 | 25769 ft | 386 kts | 282° |
| 2026-04-22 23:33 | 25.33302 | 54.02894 | 25773 ft | 386 kts | 281° |
| 2026-04-22 23:34 | 25.33888 | 54.00002 | 25774 ft | 386 kts | 282° |
| 2026-04-22 23:34 | 25.34483 | 53.97114 | 25775 ft | 385 kts | 282° |
| 2026-04-22 23:34 | 25.35087 | 53.94227 | 25776 ft | 385 kts | 282° |
| 2026-04-22 23:34 | 25.35695 | 53.91339 | 25774 ft | 385 kts | 282° |
| 2026-04-22 23:35 | 25.36304 | 53.88454 | 25773 ft | 385 kts | 282° |
| 2026-04-22 23:35 | 25.36915 | 53.85569 | 25769 ft | 385 kts | 282° |
| 2026-04-22 23:35 | 25.37524 | 53.82690 | 25768 ft | 385 kts | 282° |
| 2026-04-22 23:35 | 25.38132 | 53.79805 | 25770 ft | 385 kts | 282° |
| 2026-04-22 23:36 | 25.38738 | 53.76923 | 25773 ft | 385 kts | 282° |
| 2026-04-22 23:36 | 25.39342 | 53.74040 | 25771 ft | 385 kts | 282° |
| 2026-04-22 23:36 | 25.39946 | 53.71152 | 25771 ft | 385 kts | 282° |
| 2026-04-22 23:36 | 25.40549 | 53.68271 | 25774 ft | 385 kts | 282° |
| 2026-04-22 23:37 | 25.41146 | 53.65415 | 25779 ft | 385 kts | 282° |
| 2026-04-22 23:37 | 25.41748 | 53.62529 | 25780 ft | 385 kts | 282° |
| 2026-04-22 23:37 | 25.42358 | 53.59601 | 25781 ft | 386 kts | 281° |
| 2026-04-22 23:37 | 25.42960 | 53.56714 | 25781 ft | 386 kts | 281° |
| 2026-04-22 23:38 | 25.43565 | 53.53821 | 25787 ft | 386 kts | 282° |
| 2026-04-22 23:38 | 25.44163 | 53.50964 | 25788 ft | 386 kts | 281° |
| 2026-04-22 23:38 | 25.44768 | 53.48067 | 25795 ft | 386 kts | 281° |
| 2026-04-22 23:38 | 25.45371 | 53.45172 | 25800 ft | 386 kts | 281° |
| 2026-04-22 23:39 | 25.45970 | 53.42275 | 25804 ft | 386 kts | 281° |
| 2026-04-22 23:39 | 25.46569 | 53.39377 | 25804 ft | 386 kts | 281° |
| 2026-04-22 23:39 | 25.47167 | 53.36480 | 25806 ft | 386 kts | 281° |
| 2026-04-22 23:39 | 25.47766 | 53.33586 | 25807 ft | 386 kts | 281° |
| 2026-04-22 23:40 | 25.48365 | 53.30691 | 25811 ft | 386 kts | 281° |
| 2026-04-22 23:40 | 25.48962 | 53.27792 | 25809 ft | 386 kts | 281° |
| 2026-04-22 23:40 | 25.49559 | 53.24896 | 25815 ft | 386 kts | 281° |
| 2026-04-22 23:40 | 25.50158 | 53.22000 | 25812 ft | 386 kts | 281° |
| 2026-04-22 23:41 | 25.50754 | 53.19103 | 25817 ft | 386 kts | 281° |
| 2026-04-22 23:41 | 25.51349 | 53.16205 | 25817 ft | 386 kts | 281° |
| 2026-04-22 23:41 | 25.51942 | 53.13310 | 25819 ft | 386 kts | 281° |
| 2026-04-22 23:41 | 25.52533 | 53.10409 | 25820 ft | 386 kts | 281° |
| 2026-04-22 23:42 | 25.53123 | 53.07516 | 25820 ft | 386 kts | 281° |
| 2026-04-22 23:42 | 25.53715 | 53.04616 | 25818 ft | 386 kts | 281° |
| 2026-04-22 23:42 | 25.54306 | 53.01722 | 25818 ft | 385 kts | 281° |
| 2026-04-22 23:42 | 25.54897 | 52.98825 | 25817 ft | 385 kts | 281° |
| 2026-04-22 23:43 | 25.55489 | 52.95929 | 25819 ft | 385 kts | 281° |
| 2026-04-22 23:43 | 25.56086 | 52.93040 | 25819 ft | 385 kts | 283° |
| 2026-04-22 23:43 | 25.56991 | 52.90241 | 25816 ft | 387 kts | 293° |
| 2026-04-22 23:43 | 25.58332 | 52.87642 | 25815 ft | 389 kts | 299° |
| 2026-04-22 23:44 | 25.59759 | 52.85090 | 25817 ft | 389 kts | 299° |
| 2026-04-22 23:44 | 25.61179 | 52.82535 | 25816 ft | 389 kts | 298° |
| 2026-04-22 23:44 | 25.62595 | 52.79977 | 25815 ft | 389 kts | 298° |
| 2026-04-22 23:44 | 25.64008 | 52.77421 | 25819 ft | 389 kts | 298° |
| 2026-04-22 23:45 | 25.65417 | 52.74866 | 25821 ft | 389 kts | 298° |
| 2026-04-22 23:45 | 25.66827 | 52.72309 | 25818 ft | 389 kts | 298° |
| 2026-04-22 23:45 | 25.68244 | 52.69747 | 25820 ft | 389 kts | 298° |
| 2026-04-22 23:45 | 25.69660 | 52.67191 | 25820 ft | 389 kts | 298° |
| 2026-04-22 23:46 | 25.71073 | 52.64636 | 25822 ft | 389 kts | 298° |
| 2026-04-22 23:46 | 25.72484 | 52.62078 | 25824 ft | 389 kts | 298° |
| 2026-04-22 23:46 | 25.73894 | 52.59519 | 25822 ft | 389 kts | 298° |
| 2026-04-22 23:46 | 25.75304 | 52.56966 | 25825 ft | 388 kts | 298° |
| 2026-04-22 23:47 | 25.76712 | 52.54409 | 25820 ft | 388 kts | 298° |
| 2026-04-22 23:47 | 25.78120 | 52.51848 | 25822 ft | 389 kts | 298° |
| 2026-04-22 23:47 | 25.79527 | 52.49289 | 25824 ft | 388 kts | 298° |
| 2026-04-22 23:47 | 25.80937 | 52.46730 | 25825 ft | 388 kts | 298° |
| 2026-04-22 23:48 | 25.82346 | 52.44174 | 25824 ft | 388 kts | 298° |
| 2026-04-22 23:48 | 25.83756 | 52.41615 | 25822 ft | 388 kts | 298° |
| 2026-04-22 23:48 | 25.85160 | 52.39060 | 25822 ft | 388 kts | 298° |
| 2026-04-22 23:48 | 25.86565 | 52.36498 | 25822 ft | 388 kts | 298° |
| 2026-04-22 23:49 | 25.87968 | 52.33939 | 25821 ft | 388 kts | 298° |
| 2026-04-22 23:49 | 25.89369 | 52.31383 | 25818 ft | 388 kts | 298° |
| 2026-04-22 23:49 | 25.90772 | 52.28823 | 25822 ft | 388 kts | 298° |
| 2026-04-22 23:49 | 25.92176 | 52.26261 | 25819 ft | 388 kts | 298° |
| 2026-04-22 23:50 | 25.93575 | 52.23703 | 25817 ft | 388 kts | 298° |
| 2026-04-22 23:50 | 25.94976 | 52.21141 | 25818 ft | 388 kts | 298° |
| 2026-04-22 23:50 | 25.96373 | 52.18578 | 25818 ft | 388 kts | 298° |
| 2026-04-22 23:50 | 25.97770 | 52.16012 | 25819 ft | 388 kts | 298° |
| 2026-04-22 23:51 | 25.99167 | 52.13450 | 25820 ft | 388 kts | 298° |
| 2026-04-22 23:51 | 26.00565 | 52.10892 | 25823 ft | 387 kts | 298° |
| 2026-04-22 23:51 | 26.01966 | 52.08333 | 25824 ft | 387 kts | 298° |
| 2026-04-22 23:51 | 26.03366 | 52.05775 | 25823 ft | 387 kts | 298° |
| 2026-04-22 23:52 | 26.04766 | 52.03212 | 25828 ft | 387 kts | 298° |
| 2026-04-22 23:52 | 26.06160 | 52.00650 | 25834 ft | 387 kts | 298° |
| 2026-04-22 23:52 | 26.07549 | 51.98093 | 25829 ft | 387 kts | 298° |
| 2026-04-22 23:52 | 26.08940 | 51.95530 | 25832 ft | 387 kts | 298° |
| 2026-04-22 23:53 | 26.10328 | 51.92972 | 25828 ft | 387 kts | 298° |
| 2026-04-22 23:53 | 26.11249 | 51.91276 | 25828 ft | 386 kts | 298° |
| 2026-04-22 23:53 | 26.12642 | 51.88715 | 25830 ft | 386 kts | 298° |
| 2026-04-22 23:53 | 26.14034 | 51.86157 | 25829 ft | 386 kts | 298° |
| 2026-04-22 23:54 | 26.15422 | 51.83601 | 25831 ft | 386 kts | 297° |
| 2026-04-22 23:54 | 26.16809 | 51.81043 | 25833 ft | 386 kts | 298° |
| 2026-04-22 23:54 | 26.18195 | 51.78484 | 25846 ft | 386 kts | 298° |
| 2026-04-22 23:54 | 26.19579 | 51.75928 | 25838 ft | 385 kts | 297° |
| 2026-04-22 23:55 | 26.21428 | 51.72505 | 25843 ft | 385 kts | 297° |
| 2026-04-22 23:55 | 26.22342 | 51.70811 | 25844 ft | 385 kts | 298° |
| 2026-04-22 23:55 | 26.23717 | 51.68266 | 25668 ft | 382 kts | 298° |
| 2026-04-22 23:55 | 26.25084 | 51.65739 | 25427 ft | 378 kts | 298° |
| 2026-04-22 23:56 | 26.26433 | 51.63245 | 24972 ft | 374 kts | 297° |
| 2026-04-22 23:56 | 26.27773 | 51.60768 | 24497 ft | 371 kts | 297° |
| 2026-04-22 23:56 | 26.29100 | 51.58314 | 24027 ft | 369 kts | 297° |
| 2026-04-22 23:56 | 26.30418 | 51.55875 | 23557 ft | 366 kts | 297° |
| 2026-04-22 23:57 | 26.31727 | 51.53449 | 23040 ft | 364 kts | 297° |
| 2026-04-22 23:57 | 26.33023 | 51.51042 | 22509 ft | 361 kts | 297° |
| 2026-04-22 23:57 | 26.34310 | 51.48651 | 22015 ft | 358 kts | 296° |
| 2026-04-22 23:57 | 26.35587 | 51.46276 | 21528 ft | 356 kts | 296° |
| 2026-04-22 23:58 | 26.36851 | 51.43923 | 20982 ft | 350 kts | 296° |
| 2026-04-22 23:58 | 26.38096 | 51.41607 | 20114 ft | 346 kts | 296° |
| 2026-04-22 23:58 | 26.39329 | 51.39313 | 19281 ft | 343 kts | 295° |
| 2026-04-22 23:58 | 26.40548 | 51.37042 | 18471 ft | 339 kts | 295° |
| 2026-04-22 23:59 | 26.41757 | 51.34791 | 17640 ft | 336 kts | 294° |
| 2026-04-22 23:59 | 26.42952 | 51.32562 | 16750 ft | 334 kts | 294° |
| 2026-04-22 23:59 | 26.43971 | 51.30272 | 15905 ft | 325 kts | 284° |
| 2026-04-22 23:59 | 26.44552 | 51.27880 | 15107 ft | 316 kts | 273° |
| 2026-04-23 00:00 | 26.44480 | 51.23130 | 13565 ft | 301 kts | 254° |
| 2026-04-23 00:00 | 26.43894 | 51.20917 | 12726 ft | 295 kts | 245° |
| 2026-04-23 00:00 | 26.43111 | 51.18811 | 11875 ft | 293 kts | 245° |
| 2026-04-23 00:01 | 26.42331 | 51.16712 | 11056 ft | 292 kts | 245° |
| 2026-04-23 00:01 | 26.41554 | 51.14621 | 10235 ft | 291 kts | 246° |
| 2026-04-23 00:01 | 26.40786 | 51.12550 | 9742 ft | 281 kts | 246° |
| 2026-04-23 00:01 | 26.40058 | 51.10593 | 9266 ft | 269 kts | 246° |
| 2026-04-23 00:02 | 26.39347 | 51.08681 | 8613 ft | 265 kts | 247° |
| 2026-04-23 00:02 | 26.38644 | 51.06787 | 7930 ft | 263 kts | 248° |
| 2026-04-23 00:02 | 26.37945 | 51.04909 | 7249 ft | 262 kts | 248° |
| 2026-04-23 00:02 | 26.37248 | 51.03039 | 6580 ft | 260 kts | 249° |
| 2026-04-23 00:03 | 26.36557 | 51.01182 | 5909 ft | 259 kts | 249° |
| 2026-04-23 00:03 | 26.35866 | 50.99323 | 5191 ft | 261 kts | 250° |
| 2026-04-23 00:03 | 26.35165 | 50.97436 | 4709 ft | 265 kts | 249° |
| 2026-04-23 00:03 | 26.34455 | 50.95532 | 4192 ft | 268 kts | 249° |
| 2026-04-23 00:04 | 26.33729 | 50.93608 | 3687 ft | 270 kts | 250° |
| 2026-04-23 00:04 | 26.32968 | 50.91730 | 3509 ft | 261 kts | 243° |
| 2026-04-23 00:04 | 26.31751 | 50.90295 | 3389 ft | 251 kts | 217° |
| 2026-04-23 00:04 | 26.30322 | 50.89254 | 3248 ft | 241 kts | 213° |
| 2026-04-23 00:05 | 26.28903 | 50.88288 | 3061 ft | 236 kts | 213° |
| 2026-04-23 00:05 | 26.27495 | 50.87332 | 3000 ft | 237 kts | 213° |
| 2026-04-23 00:05 | 26.26077 | 50.86378 | 3005 ft | 239 kts | 212° |
| 2026-04-23 00:05 | 26.24655 | 50.85421 | 2973 ft | 239 kts | 213° |
| 2026-04-23 00:06 | 26.23234 | 50.84463 | 2973 ft | 239 kts | 213° |
| 2026-04-23 00:06 | 26.21841 | 50.83526 | 2969 ft | 226 kts | 213° |
| 2026-04-23 00:06 | 26.20569 | 50.82603 | 2936 ft | 212 kts | 224° |
| 2026-04-23 00:06 | 26.19627 | 50.81389 | 2906 ft | 205 kts | 244° |
| 2026-04-23 00:07 | 26.19094 | 50.79967 | 2839 ft | 197 kts | 261° |
| 2026-04-23 00:07 | 26.18977 | 50.78500 | 2666 ft | 184 kts | 280° |
| 2026-04-23 00:07 | 26.19225 | 50.77170 | 2468 ft | 168 kts | 296° |
| 2026-04-23 00:07 | 26.19750 | 50.76046 | 2319 ft | 161 kts | 309° |
| 2026-04-23 00:08 | 26.20353 | 50.75006 | 2093 ft | 159 kts | 309° |
| 2026-04-23 00:08 | 26.20948 | 50.73978 | 1882 ft | 159 kts | 309° |
| 2026-04-23 00:08 | 26.21550 | 50.72940 | 1680 ft | 159 kts | 309° |
| 2026-04-23 00:08 | 26.22145 | 50.71910 | 1469 ft | 158 kts | 309° |
| 2026-04-23 00:09 | 26.22713 | 50.70924 | 1265 ft | 143 kts | 309° |
| 2026-04-23 00:09 | 26.23235 | 50.70022 | 1087 ft | 135 kts | 309° |
| 2026-04-23 00:09 | 26.23737 | 50.69155 | 913 ft | 132 kts | 308° |
| 2026-04-23 00:09 | 26.24228 | 50.68305 | 763 ft | 129 kts | 308° |
| 2026-04-23 00:10 | 26.24721 | 50.67456 | 600 ft | 133 kts | 308° |
| 2026-04-23 00:10 | 26.25214 | 50.66602 | 419 ft | 132 kts | 306° |
| 2026-04-23 00:10 | 26.25714 | 50.65733 | 273 ft | 136 kts | 306° |
| 2026-04-23 00:10 | 26.26225 | 50.64844 | 100 ft | 136 kts | 306° |
| 2026-04-23 00:11 | 26.26716 | 50.64005 | 19 ft | 114 kts | 303° |
| 2026-04-23 00:11 | 26.27058 | 50.63409 | 14 ft | 73 kts | 303° |
| 2026-04-23 00:11 | 26.27246 | 50.63029 | 17 ft | 33 kts | 274° |
| 2026-04-23 00:11 | 26.27240 | 50.62844 | 19 ft | 17 kts | 226° |
| 2026-04-23 00:12 | 26.27184 | 50.62860 | 20 ft | 11 kts | 132° |
| 2026-04-23 00:12 | 26.27139 | 50.62916 | 22 ft | 8 kts | 131° |
| 2026-04-23 00:12 | 26.27108 | 50.62961 | 22 ft | 7 kts | 123° |
| 2026-04-23 00:12 | 26.27084 | 50.63001 | 25 ft | 6 kts | 124° |
| 2026-04-23 00:13 | 26.27059 | 50.63046 | 22 ft | 13 kts | 122° |
| 2026-04-23 00:13 | 26.26993 | 50.63160 | 21 ft | 20 kts | 124° |
| 2026-04-23 00:13 | 26.26915 | 50.63297 | 20 ft | 20 kts | 122° |
| 2026-04-23 00:13 | 26.26838 | 50.63431 | 19 ft | 21 kts | 123° |
| 2026-04-23 00:14 | 26.26753 | 50.63578 | 23 ft | 23 kts | 123° |
| 2026-04-23 00:14 | 26.26664 | 50.63733 | 23 ft | 24 kts | 122° |
| 2026-04-23 00:14 | 26.26588 | 50.63765 | 21 ft | 6 kts | 225° |
| 2026-04-23 00:14 | 26.26564 | 50.63722 | 21 ft | 7 kts | 256° |
| 2026-04-23 00:15 | 26.26580 | 50.63673 | 21 ft | 6 kts | 302° |
| 2026-04-23 00:15 | 26.26601 | 50.63637 | 24 ft | 5 kts | 303° |
| 2026-04-23 00:15 | 26.26619 | 50.63605 | 23 ft | 4 kts | 303° |
| 2026-04-23 00:15 | 26.26634 | 50.63580 | 23 ft | 4 kts | 303° |
| 2026-04-23 00:16 | 26.26647 | 50.63557 | 23 ft | 3 kts | 303° |
| 2026-04-23 00:16 | 26.26669 | 50.63519 | 21 ft | 7 kts | 303° |
| 2026-04-23 00:16 | 26.26693 | 50.63476 | 21 ft | 6 kts | 291° |
| 2026-04-23 00:16 | 26.26674 | 50.63445 | 23 ft | 5 kts | 220° |
| 2026-04-23 00:17 | 26.26645 | 50.63424 | 21 ft | 5 kts | 213° |
| 2026-04-23 00:17 | 26.26631 | 50.63414 | 21 ft | 0 kts | 213° |